Time;durP1;ratioP1;P1;durP2;ratioP2;P2;SDS_P1;SDS_P2;PMS_P1;PMS_P2;Temp;Humidity;BMP_temperature;BMP_pressure;BME280_temperature;BME280_humidity;BME280_pressure;Samples;Min_cycle;Max_cycle;Signal;HPM_P1;HPM_P2
2022/10/20 00:00:41;;;;;;;32.03;19.87;;;11.70;73.20;;;;;;4967791;28;48505;-83
2022/10/20 00:03:07;;;;;;;35.53;19.70;;;11.70;73.00;;;;;;4967898;28;46477;-82
2022/10/20 00:05:32;;;;;;;36.50;20.10;;;11.70;72.90;;;;;;4982732;28;46391;-83
2022/10/20 00:07:58;;;;;;;55.27;20.27;;;11.70;72.10;;;;;;4964790;28;46742;-82
2022/10/20 00:10:23;;;;;;;38.27;19.37;;;11.80;73.20;;;;;;4985556;28;46763;-83
2022/10/20 00:12:49;;;;;;;38.17;20.10;;;11.70;73.20;;;;;;4967790;28;45731;-84
2022/10/20 00:15:14;;;;;;;39.50;20.80;;;11.70;73.10;;;;;;4970133;28;46601;-84
2022/10/20 00:17:40;;;;;;;35.97;19.90;;;11.70;73.30;;;;;;4987069;28;46398;-84
2022/10/20 00:20:06;;;;;;;39.97;22.10;;;11.70;73.50;;;;;;4971214;28;48266;-83
2022/10/20 00:22:31;;;;;;;43.20;20.57;;;11.70;73.60;;;;;;4987057;28;46421;-83
2022/10/20 00:24:57;;;;;;;42.90;20.33;;;11.70;73.50;;;;;;4971356;28;46335;-83
2022/10/20 00:27:22;;;;;;;41.53;21.90;;;11.70;73.50;;;;;;4986550;28;46684;-84
2022/10/20 00:29:48;;;;;;;37.73;20.70;;;11.70;73.70;;;;;;4971451;28;49248;-82
2022/10/20 00:32:14;;;;;;;37.20;21.17;;;11.70;73.80;;;;;;4989426;28;46377;-82
2022/10/20 00:34:40;;;;;;;39.30;21.50;;;11.70;74.10;;;;;;4970535;28;46509;-82
2022/10/20 00:37:05;;;;;;;46.50;20.40;;;11.80;73.00;;;;;;4987968;28;46441;-83
2022/10/20 00:39:31;;;;;;;41.23;21.80;;;11.80;73.90;;;;;;4986917;28;46537;-83
2022/10/20 00:41:56;;;;;;;41.83;21.30;;;11.80;74.00;;;;;;4986686;28;46299;-84
2022/10/20 00:44:59;;;;;;;50.20;22.53;;;11.70;74.10;;;;;;4990095;28;46648;-84
2022/10/20 00:47:32;;;;;;;57.33;22.30;;;11.80;72.90;;;;;;4979154;28;46576;-83
2022/10/20 00:50:11;;;;;;;49.70;22.57;;;11.80;74.00;;;;;;4982962;28;50246;-83
2022/10/20 00:52:37;;;;;;;50.47;25.53;;;11.80;73.90;;;;;;4967776;28;46415;-83
2022/10/20 00:55:04;;;;;;;45.60;23.87;;;11.80;74.10;;;;;;4988963;28;46398;-83
2022/10/20 00:57:31;;;;;;;63.53;24.53;;;11.80;73.10;;;;;;4969236;28;46007;-83
2022/10/20 00:59:57;;;;;;;63.00;26.10;;;11.80;74.20;;;;;;4987349;28;48283;-83
2022/10/20 01:02:22;;;;;;;59.70;26.37;;;11.70;74.70;;;;;;4969093;28;46390;-84
2022/10/20 01:04:48;;;;;;;54.70;26.27;;;11.50;75.50;;;;;;4964233;28;46518;-83
2022/10/20 01:07:14;;;;;;;56.23;25.80;;;11.70;74.50;;;;;;4965333;28;46538;-84
2022/10/20 01:09:39;;;;;;;60.33;26.70;;;11.60;75.30;;;;;;4982038;28;47347;-83
2022/10/20 01:12:18;;;;;;;68.20;28.10;;;11.60;75.20;;;;;;4962979;28;46637;-83
2022/10/20 01:14:53;;;;;;;85.17;28.50;;;11.70;75.30;;;;;;4964585;28;46434;-83
2022/10/20 01:17:41;;;;;;;69.33;27.77;;;11.70;75.20;;;;;;4964533;28;46650;-83
2022/10/20 01:20:29;;;;;;;73.03;29.67;;;11.80;74.60;;;;;;4977826;28;47245;-83
2022/10/20 01:23:19;;;;;;;74.17;28.60;;;11.90;74.10;;;;;;4982324;28;46941;-83
2022/10/20 01:26:26;;;;;;;79.57;30.97;;;11.90;74.20;;;;;;4959788;28;46519;-83
2022/10/20 01:29:36;;;;;;;69.47;28.10;;;11.80;74.30;;;;;;4971897;28;46388;-84
2022/10/20 01:32:34;;;;;;;79.73;30.00;;;11.90;74.60;;;;;;4938291;28;46529;-83
2022/10/20 01:35:04;;;;;;;73.30;29.70;;;11.90;74.70;;;;;;4926362;28;45880;-83
2022/10/20 01:37:55;;;;;;;85.27;29.13;;;11.90;74.70;;;;;;4959039;28;46343;-83
2022/10/20 01:40:27;;;;;;;90.80;31.03;;;11.90;74.70;;;;;;4962537;28;46332;-83
2022/10/20 01:42:57;;;;;;;77.67;29.80;;;11.90;74.60;;;;;;4968805;28;48197;-83
2022/10/20 01:45:26;;;;;;;81.33;28.73;;;12.00;74.50;;;;;;4970146;28;46430;-82
2022/10/20 01:47:53;;;;;;;86.10;31.03;;;11.90;75.80;;;;;;4968009;28;46453;-82
2022/10/20 01:50:20;;;;;;;99.83;32.30;;;11.80;74.20;;;;;;4971201;28;46378;-85
2022/10/20 01:52:46;;;;;;;98.53;31.43;;;11.80;75.20;;;;;;4968825;28;49314;-83
2022/10/20 01:55:14;;;;;;;75.97;26.90;;;11.80;75.30;;;;;;4968012;28;47025;-84
2022/10/20 01:57:57;;;;;;;100.57;32.20;;;11.70;75.10;;;;;;4967691;28;46619;-83
2022/10/20 02:00:23;;;;;;;91.50;29.50;;;11.80;76.10;;;;;;4968608;28;46484;-83
2022/10/20 02:03:11;;;;;;;120.20;32.50;;;11.80;76.20;;;;;;4970327;28;48011;-84
2022/10/20 02:05:59;;;;;;;81.23;29.23;;;11.70;76.20;;;;;;4969394;28;46454;-83
2022/10/20 02:08:34;;;;;;;87.17;29.97;;;11.80;75.50;;;;;;4967964;28;46426;-83
2022/10/20 02:11:03;;;;;;;93.77;30.50;;;11.80;76.50;;;;;;4966510;28;46560;-84
2022/10/20 02:13:29;;;;;;;100.53;32.37;;;11.80;76.40;;;;;;4979648;28;47746;-83
2022/10/20 02:15:59;;;;;;;100.67;33.40;;;11.80;76.40;;;;;;4980839;28;46653;-84
2022/10/20 02:18:32;;;;;;;95.60;33.00;;;11.80;76.70;;;;;;4980632;28;46967;-83
2022/10/20 02:21:01;;;;;;;107.57;34.10;;;11.80;75.70;;;;;;4979360;28;46502;-84
2022/10/20 02:23:30;;;;;;;87.17;32.80;;;11.80;76.50;;;;;;4979327;28;47322;-83
2022/10/20 02:25:57;;;;;;;93.37;32.73;;;11.80;76.60;;;;;;4977285;28;46618;-84
2022/10/20 02:28:25;;;;;;;105.73;33.40;;;11.80;76.60;;;;;;4963867;28;46789;-83
2022/10/20 02:30:51;;;;;;;111.10;32.53;;;11.80;76.50;;;;;;4977641;28;46786;-84
2022/10/20 02:33:18;;;;;;;112.00;35.23;;;11.80;76.70;;;;;;4979701;28;48200;-85
2022/10/20 02:35:53;;;;;;;87.43;31.77;;;11.80;76.80;;;;;;4980775;28;46478;-86
2022/10/20 02:38:19;;;;;;;87.40;31.37;;;11.80;76.20;;;;;;4981576;28;46433;-84
2022/10/20 02:40:45;;;;;;;92.60;32.07;;;11.80;77.20;;;;;;4990539;28;46438;-84
2022/10/20 02:43:10;;;;;;;88.07;33.53;;;11.80;76.00;;;;;;4990185;28;46372;-85
2022/10/20 02:45:36;;;;;;;91.77;32.10;;;11.90;75.70;;;;;;4965634;28;46471;-84
2022/10/20 02:48:01;;;;;;;99.93;33.00;;;12.00;75.20;;;;;;4965071;28;46469;-83
2022/10/20 02:50:27;;;;;;;102.87;32.20;;;12.00;76.00;;;;;;4967303;28;46668;-83
2022/10/20 02:52:53;;;;;;;90.83;33.97;;;12.10;75.80;;;;;;4967660;28;48340;-83
2022/10/20 02:55:18;;;;;;;88.87;32.97;;;12.10;75.90;;;;;;4970017;28;46188;-83
2022/10/20 02:57:44;;;;;;;99.37;32.70;;;12.10;75.00;;;;;;4968356;28;46267;-84
2022/10/20 03:00:10;;;;;;;100.20;34.10;;;12.10;76.00;;;;;;4966888;28;45981;-83
2022/10/20 03:02:35;;;;;;;93.80;33.53;;;12.20;75.80;;;;;;4987672;28;46269;-84
2022/10/20 03:05:01;;;;;;;91.80;35.77;;;12.10;75.80;;;;;;4965837;28;46575;-84
2022/10/20 03:07:27;;;;;;;88.07;33.60;;;12.20;75.80;;;;;;4986337;28;46749;-84
2022/10/20 03:09:52;;;;;;;92.77;33.17;;;12.20;75.50;;;;;;4967181;28;45972;-84
2022/10/20 03:12:18;;;;;;;101.27;33.57;;;12.20;75.70;;;;;;4969039;28;49318;-83
2022/10/20 03:14:44;;;;;;;93.67;33.27;;;12.20;75.80;;;;;;4967898;28;46452;-84
2022/10/20 03:17:09;;;;;;;109.87;34.00;;;12.30;74.60;;;;;;4967535;28;46389;-83
2022/10/20 03:19:35;;;;;;;102.27;34.83;;;12.30;75.60;;;;;;4966379;28;46803;-83
2022/10/20 03:22:00;;;;;;;96.60;34.07;;;12.30;75.50;;;;;;4986182;28;46681;-83
2022/10/20 03:24:26;;;;;;;80.67;32.57;;;12.30;75.70;;;;;;4985438;28;51963;-83
2022/10/20 03:26:51;;;;;;;87.37;30.87;;;12.30;75.90;;;;;;4969396;28;45845;-85
2022/10/20 03:29:17;;;;;;;93.90;33.20;;;12.30;74.90;;;;;;4968261;28;46505;-83
2022/10/20 03:31:43;;;;;;;104.00;35.33;;;12.30;76.10;;;;;;4988625;28;47043;-83
2022/10/20 03:34:08;;;;;;;81.77;32.50;;;12.30;76.20;;;;;;4983589;28;45749;-82
2022/10/20 03:36:34;;;;;;;90.63;34.47;;;12.30;77.60;;;;;;4985240;28;46287;-83
2022/10/20 03:38:59;;;;;;;98.73;34.43;;;12.30;75.20;;;;;;4966902;28;46407;-83
2022/10/20 03:41:25;;;;;;;112.17;35.07;;;;;;;;;;4967673;28;49007;-84
2022/10/20 03:43:51;;;;;;;96.93;36.27;;;12.40;74.60;;;;;;4970532;28;46643;-83
2022/10/20 03:46:16;;;;;;;96.57;34.33;;;12.50;75.50;;;;;;4990092;28;45854;-84
2022/10/20 03:48:42;;;;;;;84.30;35.90;;;12.60;74.00;;;;;;4963451;28;45889;-84
2022/10/20 03:51:08;;;;;;;109.97;35.03;;;12.60;74.80;;;;;;4969948;28;48226;-84
2022/10/20 03:53:34;;;;;;;102.17;35.00;;;12.70;74.80;;;;;;4970815;28;46636;-85
2022/10/20 03:56:15;;;;;;;100.17;35.30;;;12.70;74.70;;;;;;4986535;28;46382;-83
2022/10/20 03:58:41;;;;;;;100.87;34.90;;;12.70;73.50;;;;;;4985443;28;46391;-83
2022/10/20 04:01:08;;;;;;;96.03;33.53;;;12.70;74.70;;;;;;4988042;28;46113;-84
2022/10/20 04:03:33;;;;;;;99.77;35.60;;;12.70;74.70;;;;;;4981737;28;46666;-83
2022/10/20 04:05:59;;;;;;;124.57;34.37;;;12.80;74.70;;;;;;4971182;28;47447;-83
2022/10/20 04:08:25;;;;;;;94.40;35.57;;;12.70;74.90;;;;;;4970695;28;46620;-83
2022/10/20 04:10:51;;;;;;;101.70;35.90;;;12.70;75.20;;;;;;4971203;28;48184;-83
2022/10/20 04:13:16;;;;;;;101.97;36.10;;;12.80;75.00;;;;;;4969751;28;50251;-83
2022/10/20 04:15:42;;;;;;;92.23;31.97;;;12.90;74.70;;;;;;4969709;28;46456;-84
2022/10/20 04:18:07;;;;;;;91.53;33.20;;;12.90;73.60;;;;;;4969111;28;46626;-86
2022/10/20 04:20:33;;;;;;;79.70;30.23;;;12.90;74.60;;;;;;4975837;28;48297;-84
2022/10/20 04:22:59;;;;;;;69.13;26.47;;;12.80;74.70;;;;;;4991105;28;46201;-83
2022/10/20 04:25:24;;;;;;;63.07;26.43;;;12.90;75.00;;;;;;4972571;28;46406;-83
2022/10/20 04:27:50;;;;;;;68.70;26.00;;;12.80;75.20;;;;;;4967757;28;46473;-83
2022/10/20 04:30:15;;;;;;;64.43;24.97;;;12.80;75.20;;;;;;4982199;28;55317;-82
2022/10/20 04:32:41;;;;;;;53.07;25.23;;;12.80;75.30;;;;;;4983268;28;46747;-82
2022/10/20 04:35:07;;;;;;;56.53;25.50;;;12.90;75.30;;;;;;4987247;28;46308;-83
2022/10/20 04:37:32;;;;;;;51.87;23.50;;;12.90;75.30;;;;;;4968387;28;46695;-81
2022/10/20 04:39:58;;;;;;;67.10;26.50;;;12.80;75.50;;;;;;4986306;28;46633;-82
2022/10/20 04:42:24;;;;;;;55.90;24.80;;;12.80;75.80;;;;;;4972914;28;45789;-84
2022/10/20 04:44:49;;;;;;;49.00;22.10;;;12.80;76.20;;;;;;4985795;28;46410;-84
2022/10/20 04:47:15;;;;;;;57.17;24.67;;;12.70;75.40;;;;;;4988416;28;46522;-83
2022/10/20 04:49:40;;;;;;;61.13;24.87;;;12.70;76.40;;;;;;4987745;28;47408;-83
2022/10/20 04:52:06;;;;;;;59.17;25.80;;;12.70;76.50;;;;;;4972023;28;46364;-83
2022/10/20 04:54:32;;;;;;;54.50;24.40;;;12.80;76.50;;;;;;4971644;28;45841;-83
2022/10/20 04:56:57;;;;;;;57.40;25.00;;;12.80;76.70;;;;;;4972714;28;46414;-83
2022/10/20 04:59:23;;;;;;;50.20;23.73;;;12.80;75.50;;;;;;4971030;28;46807;-83
2022/10/20 05:01:48;;;;;;;50.43;22.03;;;12.80;76.60;;;;;;4989857;28;46574;-82
2022/10/20 05:04:20;;;;;;;49.57;22.97;;;12.80;75.60;;;;;;4972866;28;46004;-82
2022/10/20 05:06:45;;;;;;;56.70;24.93;;;12.80;76.60;;;;;;4987443;28;46449;-82
2022/10/20 05:09:11;;;;;;;52.33;23.30;;;12.80;75.50;;;;;;4969553;28;48420;-82
2022/10/20 05:11:37;;;;;;;51.07;23.37;;;12.90;76.30;;;;;;4964050;28;46498;-83
2022/10/20 05:14:03;;;;;;;50.40;23.47;;;12.90;75.90;;;;;;4988039;28;47359;-84
2022/10/20 05:16:28;;;;;;;39.83;20.43;;;12.90;76.30;;;;;;4966846;28;46543;-80
2022/10/20 05:18:54;;;;;;;57.57;23.77;;;12.80;75.80;;;;;;4968389;28;53941;-80
2022/10/20 05:21:23;;;;;;;56.70;23.53;;;12.70;77.20;;;;;;4968512;28;46568;-83
2022/10/20 05:23:54;;;;;;;52.73;24.17;;;12.70;77.40;;;;;;4967647;28;45921;-81
2022/10/20 05:26:19;;;;;;;52.57;25.47;;;12.70;77.60;;;;;;4984581;28;46327;-83
2022/10/20 05:28:48;;;;;;;55.43;24.33;;;12.70;76.40;;;;;;4970351;28;48430;-82
2022/10/20 05:31:15;;;;;;;55.63;22.53;;;12.70;77.60;;;;;;4975259;28;46477;-82
2022/10/20 05:33:49;;;;;;;56.57;23.53;;;12.60;77.60;;;;;;4988173;28;46465;-82
2022/10/20 05:36:18;;;;;;;48.70;23.53;;;12.70;77.60;;;;;;4961504;28;46641;-84
2022/10/20 05:38:44;;;;;;;53.47;23.30;;;12.70;76.40;;;;;;4967715;28;48263;-83
2022/10/20 05:41:13;;;;;;;51.03;22.47;;;12.70;77.30;;;;;;4967494;28;46672;-82
2022/10/20 05:43:39;;;;;;;45.63;20.93;;;12.70;77.30;;;;;;4971189;28;46517;-83
2022/10/20 05:46:05;;;;;;;45.50;22.80;;;12.70;77.30;;;;;;4969082;28;46548;-81
2022/10/20 05:48:31;;;;;;;55.23;22.30;;;12.80;76.10;;;;;;4994768;28;46770;-85
2022/10/20 05:51:16;;;;;;;39.93;20.50;;;12.80;77.00;;;;;;4995148;28;46362;-81
2022/10/20 05:53:42;;;;;;;56.50;21.43;;;12.80;76.70;;;;;;4972525;28;46068;-82
2022/10/20 05:56:11;;;;;;;49.93;22.40;;;12.80;76.60;;;;;;4994986;28;46385;-83
2022/10/20 05:58:38;;;;;;;52.67;21.60;;;12.80;75.70;;;;;;4973254;28;49244;-82
2022/10/20 06:01:09;;;;;;;45.20;21.13;;;12.80;76.90;;;;;;4969558;28;46470;-82
2022/10/20 06:03:35;;;;;;;40.50;20.90;;;12.80;76.90;;;;;;4983563;28;46395;-82
2022/10/20 06:06:02;;;;;;;44.73;21.03;;;12.70;75.90;;;;;;4967876;28;46330;-82
2022/10/20 06:08:32;;;;;;;46.07;20.90;;;12.70;77.10;;;;;;4968830;28;48303;-82
2022/10/20 06:11:05;;;;;;;47.03;21.50;;;12.70;77.20;;;;;;4968741;28;46430;-81
2022/10/20 06:13:31;;;;;;;47.17;22.63;;;12.70;77.20;;;;;;4966678;28;46476;-82
2022/10/20 06:16:02;;;;;;;48.60;23.23;;;12.70;77.40;;;;;;4987261;28;46421;-82
2022/10/20 06:18:27;;;;;;;51.07;23.30;;;12.60;76.40;;;;;;4968708;28;49163;-82
2022/10/20 06:21:01;;;;;;;48.23;22.90;;;12.60;77.60;;;;;;4967647;28;46628;-82
2022/10/20 06:23:27;;;;;;;52.43;24.77;;;12.70;77.80;;;;;;4988329;28;46359;-83
2022/10/20 06:25:53;;;;;;;46.77;23.47;;;12.70;77.60;;;;;;4972217;28;46597;-83
2022/10/20 06:28:18;;;;;;;48.70;22.80;;;12.70;76.70;;;;;;4972497;28;48321;-83
2022/10/20 06:30:44;;;;;;;50.40;23.67;;;12.70;77.50;;;;;;4975301;28;45955;-83
2022/10/20 06:33:11;;;;;;;60.33;25.07;;;12.80;77.20;;;;;;4988829;28;46551;-83
2022/10/20 06:35:36;;;;;;;57.17;26.83;;;12.80;77.20;;;;;;4972816;28;46937;-83
2022/10/20 06:38:02;;;;;;;70.83;27.30;;;12.80;77.30;;;;;;4989282;28;46511;-84
2022/10/20 06:40:28;;;;;;;53.90;27.87;;;12.70;77.30;;;;;;4974226;28;46480;-83
2022/10/20 06:42:53;;;;;;;61.00;28.07;;;12.60;77.30;;;;;;4989364;28;46827;-83
2022/10/20 06:45:19;;;;;;;71.20;27.60;;;12.60;76.40;;;;;;4993837;28;46659;-83
2022/10/20 06:47:44;;;;;;;76.53;27.37;;;12.60;76.60;;;;;;4971687;28;48444;-82
2022/10/20 06:50:10;;;;;;;73.20;26.80;;;12.60;77.70;;;;;;4992770;28;51918;-82
2022/10/20 06:52:35;;;;;;;73.87;24.93;;;12.60;77.60;;;;;;4978982;28;46735;-83
2022/10/20 06:55:01;;;;;;;53.90;26.90;;;12.60;77.50;;;;;;4976470;28;45846;-82
2022/10/20 06:57:26;;;;;;;54.70;27.20;;;12.60;77.20;;;;;;4974952;28;53776;-83
2022/10/20 06:59:52;;;;;;;43.80;25.33;;;12.70;76.70;;;;;;4972230;28;49201;-84
2022/10/20 07:02:17;;;;;;;54.13;26.10;;;12.80;76.40;;;;;;4972455;28;45954;-82
2022/10/20 07:04:43;;;;;;;51.77;25.50;;;12.90;76.10;;;;;;4988464;28;46543;-83
2022/10/20 07:07:08;;;;;;;51.47;24.77;;;12.80;75.40;;;;;;4985039;28;52900;-83
2022/10/20 07:09:34;;;;;;;48.77;24.00;;;;;;;;;;4987688;28;46363;-82
2022/10/20 07:12:01;;;;;;;49.50;25.07;;;12.70;75.40;;;;;;4978226;28;46397;-84
2022/10/20 07:14:26;;;;;;;58.30;27.20;;;12.70;76.40;;;;;;4975117;28;46309;-83
2022/10/20 07:16:52;;;;;;;46.07;24.33;;;12.60;76.60;;;;;;4992082;28;47245;-83
2022/10/20 07:19:17;;;;;;;46.73;24.43;;;12.60;75.70;;;;;;4993834;28;46322;-84
2022/10/20 07:21:43;;;;;;;52.40;25.13;;;12.50;76.70;;;;;;4975719;28;46314;-83
2022/10/20 07:24:09;;;;;;;51.93;23.97;;;12.40;77.10;;;;;;4976670;28;46447;-83
2022/10/20 07:26:37;;;;;;;60.17;25.73;;;12.40;77.20;;;;;;5001084;28;46331;-84
2022/10/20 07:29:03;;;;;;;62.63;26.77;;;12.40;76.00;;;;;;4978602;28;45843;-83
2022/10/20 07:31:30;;;;;;;63.53;25.33;;;12.40;77.20;;;;;;4976180;28;46333;-83
2022/10/20 07:33:57;;;;;;;49.43;24.87;;;12.40;77.00;;;;;;4977415;28;46387;-82
2022/10/20 07:36:26;;;;;;;50.27;27.20;;;12.40;76.60;;;;;;4992652;28;46697;-83
2022/10/20 07:38:53;;;;;;;55.90;27.80;;;12.60;75.10;;;;;;4970710;28;46469;-83
2022/10/20 07:41:19;;;;;;;54.43;26.20;;;12.50;75.80;;;;;;4996236;28;47380;-84
2022/10/20 07:43:44;;;;;;;68.27;27.50;;;12.60;75.60;;;;;;4977331;28;45876;-83
2022/10/20 07:46:11;;;;;;;53.67;25.43;;;12.60;75.80;;;;;;4990974;28;47321;-85
2022/10/20 07:48:37;;;;;;;58.10;25.30;;;12.60;75.70;;;;;;4972973;28;46456;-85
2022/10/20 07:51:23;;;;;;;57.63;26.53;;;12.70;75.40;;;;;;4975094;28;46529;-86
2022/10/20 07:53:49;;;;;;;46.70;24.80;;;12.80;75.20;;;;;;4985405;28;46482;-86
2022/10/20 07:56:15;;;;;;;51.70;25.83;;;12.80;74.80;;;;;;4969312;28;48393;-85
2022/10/20 07:58:41;;;;;;;47.73;24.43;;;12.80;73.90;;;;;;4965797;28;46553;-85
2022/10/20 08:01:07;;;;;;;41.23;23.07;;;12.90;74.70;;;;;;4968636;28;46296;-84
2022/10/20 08:03:33;;;;;;;43.83;23.97;;;12.90;74.40;;;;;;4987908;28;46354;-85
2022/10/20 08:05:59;;;;;;;51.10;26.43;;;13.10;74.30;;;;;;4986578;28;47909;-85
2022/10/20 08:08:24;;;;;;;51.03;25.60;;;13.30;73.70;;;;;;4967633;28;46886;-85
2022/10/20 08:10:50;;;;;;;40.80;22.43;;;13.50;72.80;;;;;;4972083;28;46353;-85
2022/10/20 08:13:15;;;;;;;42.20;21.40;;;13.20;72.70;;;;;;4974508;28;45840;-86
2022/10/20 08:15:41;;;;;;;48.07;24.47;;;13.40;73.30;;;;;;4977149;28;48545;-86
2022/10/20 08:18:07;;;;;;;40.23;23.17;;;13.40;72.00;;;;;;4991668;28;46438;-85
2022/10/20 08:20:32;;;;;;;45.73;22.67;;;13.40;73.50;;;;;;4996739;28;46555;-85
2022/10/20 08:22:58;;;;;;;38.17;22.40;;;13.40;72.10;;;;;;4974023;28;46935;-85
2022/10/20 08:25:24;;;;;;;46.30;22.00;;;13.30;73.30;;;;;;4973255;28;48162;-84
2022/10/20 08:27:50;;;;;;;39.80;23.07;;;14.90;75.30;;;;;;4987900;28;46099;-85
2022/10/20 08:30:16;;;;;;;43.40;21.53;;;;;;;;;;4971381;28;46312;-84
2022/10/20 08:32:42;;;;;;;42.60;22.60;;;13.00;73.40;;;;;;4989485;28;45929;-84
2022/10/20 08:35:08;;;;;;;40.20;22.17;;;13.00;74.40;;;;;;4971908;28;47930;-85
2022/10/20 08:37:35;;;;;;;46.77;23.13;;;13.10;73.00;;;;;;4974927;28;45818;-85
2022/10/20 08:40:02;;;;;;;41.47;21.00;;;13.10;74.10;;;;;;4991515;28;45731;-85
2022/10/20 08:42:28;;;;;;;40.37;22.77;;;13.30;74.00;;;;;;4996072;28;46335;-84
2022/10/20 08:44:58;;;;;;;47.37;22.40;;;13.50;73.10;;;;;;4968384;28;48316;-85
2022/10/20 08:47:30;;;;;;;42.33;23.40;;;13.60;71.30;;;;;;4977157;28;46477;-87
2022/10/20 08:49:56;;;;;;;44.97;23.80;;;13.60;72.30;;;;;;5005782;28;45863;-86
2022/10/20 08:52:24;;;;;;;48.33;22.63;;;13.50;72.40;;;;;;5012544;28;45944;-86
2022/10/20 08:54:54;;;;;;;37.00;22.43;;;13.50;72.40;;;;;;4974718;28;48121;-86
2022/10/20 08:57:28;;;;;;;41.77;22.03;;;13.40;71.70;;;;;;4981989;28;46251;-87
2022/10/20 09:00:00;;;;;;;49.53;21.37;;;13.40;72.70;;;;;;5000660;28;45807;-85
2022/10/20 09:02:28;;;;;;;43.03;23.70;;;13.40;72.60;;;;;;4979687;28;46429;-86
2022/10/20 09:05:01;;;;;;;37.20;21.20;;;13.50;72.70;;;;;;4981691;28;48106;-86
2022/10/20 09:07:27;;;;;;;36.73;20.93;;;;;;;;;;5001341;28;46379;-86
2022/10/20 09:10:06;;;;;;;37.80;21.10;;;13.60;71.30;;;;;;4979931;28;46520;-86
2022/10/20 09:12:32;;;;;;;34.23;19.03;;;13.70;72.40;;;;;;4961010;28;46828;-85
2022/10/20 09:14:57;;;;;;;35.17;20.83;;;13.70;72.10;;;;;;4968959;28;49122;-84
2022/10/20 09:17:23;;;;;;;33.67;19.30;;;13.80;72.00;;;;;;4988266;28;46216;-84
2022/10/20 09:19:53;;;;;;;35.80;21.60;;;13.90;71.50;;;;;;4977505;28;46972;-86
2022/10/20 09:22:21;;;;;;;32.33;19.80;;;13.90;71.30;;;;;;5002681;28;46343;-85
2022/10/20 09:24:48;;;;;;;38.23;18.60;;;14.30;71.10;;;;;;4983211;28;48422;-87
2022/10/20 09:27:20;;;;;;;36.30;20.60;;;14.00;70.10;;;;;;4983000;28;45950;-86
2022/10/20 09:29:45;;;;;;;32.13;18.37;;;14.00;71.00;;;;;;5001141;28;46270;-85
2022/10/20 09:32:33;;;;;;;36.40;18.97;;;14.00;71.00;;;;;;5000611;28;45977;-85
2022/10/20 09:35:23;;;;;;;31.63;18.73;;;14.00;70.90;;;;;;4975184;28;48427;-85
2022/10/20 09:38:15;;;;;;;34.73;19.30;;;14.00;69.40;;;;;;4962006;28;46950;-84
2022/10/20 09:41:09;;;;;;;34.63;18.83;;;14.00;70.30;;;;;;4985398;28;46376;-84
2022/10/20 09:43:51;;;;;;;34.60;19.27;;;13.90;70.60;;;;;;4971504;28;46720;-85
2022/10/20 09:46:21;;;;;;;35.70;19.43;;;13.80;70.90;;;;;;4979486;28;48227;-86
2022/10/20 09:48:49;;;;;;;33.70;18.27;;;13.70;71.30;;;;;;4978874;28;46774;-85
2022/10/20 09:51:18;;;;;;;38.43;19.60;;;13.70;71.10;;;;;;4982780;28;46696;-85
2022/10/20 09:54:04;;;;;;;36.00;19.60;;;13.60;71.30;;;;;;4996401;28;46735;-85
2022/10/20 09:56:34;;;;;;;31.13;18.40;;;13.80;71.10;;;;;;5000583;28;46362;-85
2022/10/20 09:59:04;;;;;;;29.70;16.80;;;14.00;70.50;;;;;;5003592;28;45901;-85
2022/10/20 10:01:29;;;;;;;27.77;16.97;;;14.10;69.90;;;;;;4999559;28;45766;-86
2022/10/20 10:04:00;;;;;;;30.83;16.57;;;14.20;69.20;;;;;;5003889;28;46154;-85
2022/10/20 10:06:42;;;;;;;29.63;16.07;;;14.30;69.20;;;;;;4986082;28;48679;-86
2022/10/20 10:09:29;;;;;;;35.80;16.83;;;14.70;67.70;;;;;;4999524;28;46035;-86
2022/10/20 10:11:59;;;;;;;48.47;18.80;;;14.80;67.60;;;;;;4981332;28;45815;-87
2022/10/20 10:14:26;;;;;;;30.57;17.50;;;14.80;67.90;;;;;;5002229;28;46469;-86
2022/10/20 10:16:51;;;;;;;35.40;17.67;;;14.80;67.90;;;;;;4983660;28;48541;-85
2022/10/20 10:19:21;;;;;;;36.67;18.40;;;14.90;66.70;;;;;;4985748;28;46346;-85
2022/10/20 10:21:54;;;;;;;39.50;18.03;;;14.80;67.00;;;;;;4986641;28;45871;-87
2022/10/20 10:24:35;;;;;;;35.97;19.73;;;14.80;67.30;;;;;;4985588;28;46471;-86
2022/10/20 10:27:01;;;;;;;28.70;19.00;;;14.50;68.10;;;;;;4995099;28;46544;-85
2022/10/20 10:29:30;;;;;;;31.43;17.97;;;14.80;66.50;;;;;;4978660;28;45845;-85
2022/10/20 10:32:01;;;;;;;33.33;19.60;;;14.60;66.40;;;;;;4979489;28;46447;-85
2022/10/20 10:34:35;;;;;;;41.00;20.60;;;14.90;66.80;;;;;;4999679;28;45857;-86
2022/10/20 10:37:01;;;;;;;44.87;21.50;;;14.80;67.30;;;;;;4993414;28;46419;-84
2022/10/20 10:39:29;;;;;;;40.63;20.70;;;14.70;66.00;;;;;;4978327;28;45803;-86
2022/10/20 10:42:32;;;;;;;37.70;20.10;;;14.70;67.00;;;;;;4986494;28;46076;-86
2022/10/20 10:45:29;;;;;;;33.07;18.77;;;15.10;65.30;;;;;;5000795;28;46456;-85
2022/10/20 10:48:30;;;;;;;36.93;20.23;;;15.10;66.20;;;;;;4997487;28;46795;-85
2022/10/20 10:50:58;;;;;;;39.87;20.23;;;15.00;66.40;;;;;;4981569;28;46550;-86
2022/10/20 10:53:43;;;;;;;40.43;20.87;;;14.70;67.30;;;;;;4982449;28;46527;-85
2022/10/20 10:56:22;;;;;;;43.20;20.50;;;14.80;67.20;;;;;;4999998;28;46622;-85
2022/10/20 10:58:58;;;;;;;45.53;20.17;;;14.70;67.40;;;;;;4973520;28;49476;-85
2022/10/20 11:01:38;;;;;;;35.73;18.73;;;15.00;66.70;;;;;;5002692;28;46725;-85
2022/10/20 11:04:23;;;;;;;29.93;19.90;;;15.10;65.80;;;;;;4984697;28;46209;-86
2022/10/20 11:07:33;;;;;;;37.53;20.30;;;14.90;66.40;;;;;;4985151;28;46438;-85
2022/10/20 11:10:24;;;;;;;31.77;17.40;;;14.90;65.40;;;;;;4980046;28;47007;-85
2022/10/20 11:12:52;;;;;;;38.20;19.97;;;14.90;65.90;;;;;;5001367;28;46351;-86
2022/10/20 11:15:27;;;;;;;34.20;18.20;;;15.00;65.80;;;;;;4982963;28;46372;-85
2022/10/20 11:18:21;;;;;;;33.03;18.67;;;14.90;66.00;;;;;;4978677;28;46577;-84
2022/10/20 11:21:03;;;;;;;34.60;18.57;;;15.00;66.10;;;;;;4989848;28;46668;-85
2022/10/20 11:24:04;;;;;;;34.63;18.80;;;15.00;66.00;;;;;;4991558;28;46424;-85
2022/10/20 11:26:36;;;;;;;34.33;19.57;;;15.00;65.80;;;;;;4973321;28;46315;-83
2022/10/20 11:29:05;;;;;;;29.70;17.93;;;15.20;64.00;;;;;;4973285;28;46711;-85
2022/10/20 11:31:53;;;;;;;39.93;19.50;;;15.30;64.80;;;;;;4990691;28;46597;-83
2022/10/20 11:34:53;;;;;;;33.00;20.00;;;15.20;64.70;;;;;;4989146;28;46464;-83
2022/10/20 11:37:27;;;;;;;33.40;19.87;;;14.70;64.90;;;;;;4973471;28;46409;-84
2022/10/20 11:40:13;;;;;;;36.87;19.13;;;14.70;65.80;;;;;;4979739;28;46394;-84
2022/10/20 11:43:06;;;;;;;35.87;20.43;;;14.50;66.20;;;;;;4982640;28;48348;-84
2022/10/20 11:45:51;;;;;;;35.67;19.30;;;14.40;66.50;;;;;;4981940;28;46369;-85
2022/10/20 11:48:32;;;;;;;38.00;19.30;;;14.40;66.40;;;;;;4988075;28;46352;-86
2022/10/20 11:51:01;;;;;;;33.07;20.20;;;14.20;66.80;;;;;;4998498;28;46500;-86
2022/10/20 11:53:35;;;;;;;37.63;19.90;;;14.20;67.00;;;;;;4982605;28;48579;-84
2022/10/20 11:56:33;;;;;;;35.37;20.17;;;14.20;66.70;;;;;;4983773;28;46374;-85
2022/10/20 11:59:05;;;;;;;37.23;20.17;;;13.90;66.10;;;;;;4988011;28;46358;-83
2022/10/20 12:01:57;;;;;;;42.30;22.37;;;13.80;67.50;;;;;;4993699;28;46560;-84
2022/10/20 12:04:33;;;;;;;32.17;19.90;;;13.80;67.40;;;;;;4974032;28;49260;-83
2022/10/20 12:07:06;;;;;;;36.63;20.90;;;13.80;67.70;;;;;;4973519;28;46500;-84
2022/10/20 12:09:44;;;;;;;36.33;20.60;;;13.60;66.70;;;;;;4990148;28;46442;-85
2022/10/20 12:12:24;;;;;;;36.13;21.40;;;13.60;67.80;;;;;;4976077;28;46481;-82
2022/10/20 12:14:56;;;;;;;42.10;19.40;;;13.60;67.70;;;;;;4973449;28;48060;-84
2022/10/20 12:17:35;;;;;;;42.53;22.23;;;13.70;66.50;;;;;;4971636;28;46563;-84
2022/10/20 12:20:27;;;;;;;36.43;21.07;;;13.70;67.20;;;;;;4984977;28;47061;-83
2022/10/20 12:22:57;;;;;;;42.17;19.13;;;13.90;66.40;;;;;;4958408;28;46722;-84
2022/10/20 12:25:26;;;;;;;35.53;20.73;;;13.90;66.50;;;;;;4990728;28;46385;-85
2022/10/20 12:28:19;;;;;;;35.10;19.30;;;13.90;65.20;;;;;;4970983;28;47523;-84
2022/10/20 12:31:00;;;;;;;34.60;19.80;;;14.00;66.00;;;;;;4989423;28;46377;-86
2022/10/20 12:33:49;;;;;;;30.17;18.87;;;14.00;66.00;;;;;;4990004;28;46105;-84
2022/10/20 12:36:17;;;;;;;38.37;20.90;;;14.10;65.80;;;;;;4990194;28;46573;-84
2022/10/20 12:38:46;;;;;;;33.50;19.20;;;14.20;65.50;;;;;;4988879;28;47495;-83
2022/10/20 12:41:29;;;;;;;30.07;17.73;;;14.30;65.40;;;;;;4970012;28;46572;-84
2022/10/20 12:44:00;;;;;;;34.30;20.17;;;14.00;65.80;;;;;;4969697;28;46501;-84
2022/10/20 12:46:30;;;;;;;36.13;20.53;;;14.00;66.10;;;;;;4989540;28;46695;-87